Pongnae — 3FDZ8 — position and weather

sailwx.info

Track history (hours):
 
Tides and Currents Weather Stations Pressure Air Temp Water Temp Dewpoint Dewpoint Depression Visibility Wind Speed Wind Dir Waves Ship Positions

Pongnae

Operator: V Ships Leisure SAM

Last reported at 2015-Mar-27 07:33 UTC. Time now 2015-Mar-27 08:11 UTC.
Position N 22°18' E 114°13'.

Length 171 m; draft 6.6 m.

Type: Passenger vessel. MMSI: 353669000.

Date/timePositionNaut miles runAvg speedWind from/ knotsBaromVisibWave heightAir tempDewpointWater temp
2015-Mar-27 07:33N 22°18' E 114°13'0 0.0
2015-Mar-27 06:33N 22°18' E 114°13'0 0.1
2015-Mar-27 05:33N 22°18' E 114°13'0 0.0
2015-Mar-27 04:33N 22°18' E 114°13'0 0.0
2015-Mar-27 03:33N 22°18' E 114°13'0 0.0
2015-Mar-27 02:33N 22°18' E 114°13'0 0.0
2015-Mar-27 01:33N 22°18' E 114°13'0 0.0
2015-Mar-27 00:33N 22°18' E 114°13'2 2.4
2015-Mar-26 23:34N 22°17' E 114°16'7 6.5
2015-Mar-26 22:30N 22°11' E 114°20'1 0.2
2015-Mar-26 13:07N 22°12' E 114°19'711.8
2015-Mar-26 12:33N 22°17' E 114°14'1 1.1
2015-Mar-26 11:33N 22°18' E 114°13'0 0.0
2015-Mar-26 10:33N 22°18' E 114°13'0 0.0
2015-Mar-26 09:33N 22°18' E 114°13'0 0.0
2015-Mar-26 08:33N 22°18' E 114°13'0 0.0
2015-Mar-26 07:33N 22°18' E 114°13'0 0.1
2015-Mar-26 06:33N 22°18' E 114°13'0 0.0
2015-Mar-26 05:33N 22°18' E 114°13'0 0.0
2015-Mar-26 04:30N 22°18' E 114°13'0 0.1
2015-Mar-26 03:33N 22°18' E 114°13'0 0.1
2015-Mar-26 02:33N 22°18' E 114°13'0 0.0
2015-Mar-26 01:33N 22°18' E 114°13'0 0.0
2015-Mar-26 00:33N 22°18' E 114°13'3 2.6
2015-Mar-25 23:33N 22°16' E 114°16'7 6.5
2015-Mar-25 22:31N 22°11' E 114°19'1 0.1
2015-Mar-25 13:16N 22°12' E 114°19'810.9
2015-Mar-25 12:34N 22°18' E 114°13'0 0.3
2015-Mar-25 11:32N 22°18' E 114°13'0 0.1
2015-Mar-25 10:32N 22°18' E 114°13'0 0.0
2015-Mar-25 09:29N 22°18' E 114°13'0 0.1
2015-Mar-25 08:32N 22°18' E 114°13'0 0.1
2015-Mar-25 07:32N 22°18' E 114°13'0 0.1
2015-Mar-25 06:32N 22°18' E 114°13'0 0.0
2015-Mar-25 05:32N 22°18' E 114°13'0 0.1
2015-Mar-25 04:32N 22°18' E 114°13'0 0.1
2015-Mar-25 03:32N 22°18' E 114°13'0 0.0
2015-Mar-25 02:32N 22°18' E 114°13'0 0.0
2015-Mar-25 01:29N 22°18' E 114°13'0 0.0
2015-Mar-25 00:32N 22°18' E 114°13'2 1.6
2015-Mar-24 23:33N 22°17' E 114°15'9 8.4
2015-Mar-24 22:31N 22°09' E 114°18'3 0.3
2015-Mar-24 13:33N 22°12' E 114°19'8 7.2
2015-Mar-24 12:28N 22°18' E 114°13'0 0.0
2015-Mar-24 11:28N 22°18' E 114°13'0 0.0
2015-Mar-24 10:31N 22°18' E 114°13'0 0.1
2015-Mar-24 09:28N 22°18' E 114°13'0 0.0
2015-Mar-24 08:31N 22°18' E 114°13'0 0.0
2015-Mar-24 07:31N 22°18' E 114°13'0 0.0
2015-Mar-24 06:31N 22°18' E 114°13'0 0.1
2015-Mar-24 05:31N 22°18' E 114°13'0 0.0
2015-Mar-24 04:28N 22°18' E 114°13'0 0.0
2015-Mar-24 03:31N 22°18' E 114°13'0 0.0
2015-Mar-24 02:31N 22°18' E 114°13'0 0.0
2015-Mar-24 01:31N 22°18' E 114°13'0 0.0
2015-Mar-24 00:31N 22°18' E 114°13'2 2.3
2015-Mar-23 23:33N 22°17' E 114°15'10 7.3
2015-Mar-23 22:15N 22°08' E 114°19'4 0.6
2015-Mar-23 15:20N 22°04' E 114°17'8 4.0
2015-Mar-23 13:23N 22°12' E 114°19'8 9.2
2015-Mar-23 12:31N 22°18' E 114°13'0 0.1
2015-Mar-23 11:31N 22°18' E 114°13'0 0.0
2015-Mar-23 10:31N 22°18' E 114°13'0 0.0
2015-Mar-23 09:31N 22°18' E 114°13'0 0.1
2015-Mar-23 08:31N 22°18' E 114°13'0 0.0
2015-Mar-23 07:31N 22°18' E 114°13'0 0.0
2015-Mar-23 06:31N 22°18' E 114°13'0 0.0
2015-Mar-23 05:31N 22°18' E 114°13'0 0.1
2015-Mar-23 04:28N 22°18' E 114°13'0 0.0
2015-Mar-23 03:31N 22°18' E 114°13'0 0.0
2015-Mar-23 02:31N 22°18' E 114°13'0 0.0
2015-Mar-23 01:31N 22°18' E 114°13'0 0.0
2015-Mar-23 00:28N 22°18' E 114°13'1 1.3
2015-Mar-22 23:33N 22°17' E 114°14'8 7.6
2015-Mar-22 22:31N 22°10' E 114°18'7 0.8
2015-Mar-22 14:06N 22°04' E 114°15'811.9
2015-Mar-22 13:23N 22°12' E 114°19'8 9.2
2015-Mar-22 12:32N 22°18' E 114°13'0 0.1
2015-Mar-22 11:32N 22°18' E 114°13'0 0.0
2015-Mar-22 10:32N 22°18' E 114°13'0 0.0
2015-Mar-22 09:32N 22°18' E 114°13'0 0.1
2015-Mar-22 08:32N 22°18' E 114°13'0 0.0
2015-Mar-22 07:32N 22°18' E 114°13'0 0.0
2015-Mar-22 06:32N 22°18' E 114°13'0 0.0
2015-Mar-22 05:32N 22°18' E 114°13'0 0.0
2015-Mar-22 04:32N 22°18' E 114°13'0 0.0
2015-Mar-22 03:32N 22°18' E 114°13'0 0.1
2015-Mar-22 02:32N 22°18' E 114°13'0 0.0
2015-Mar-22 01:32N 22°18' E 114°13'0 0.0
2015-Mar-22 00:32N 22°18' E 114°13'1 1.2
2015-Mar-21 23:34N 22°17' E 114°14'8 7.5
2015-Mar-21 22:32N 22°11' E 114°19'1 0.1
2015-Mar-21 13:13N 22°12' E 114°19'711.5
2015-Mar-21 12:33N 22°18' E 114°13'0 0.2
2015-Mar-21 11:32N 22°18' E 114°13'0 0.0
2015-Mar-21 10:32N 22°18' E 114°13'0 0.0
2015-Mar-21 09:32N 22°18' E 114°13'0 0.1
2015-Mar-21 08:32N 22°18' E 114°13'0 0.0
2015-Mar-21 07:32N 22°18' E 114°13'0 0.0
2015-Mar-21 06:32N 22°18' E 114°13'0 0.0
2015-Mar-21 05:32N 22°18' E 114°13'0 0.0
2015-Mar-21 04:32N 22°18' E 114°13'0 0.0
2015-Mar-21 03:32N 22°18' E 114°13'0 0.1
2015-Mar-21 02:32N 22°18' E 114°13'0 0.0
2015-Mar-21 01:32N 22°18' E 114°13'0 0.1
2015-Mar-21 00:32N 22°18' E 114°13'2 1.8
2015-Mar-20 23:33N 22°17' E 114°15'7 7.2
2015-Mar-20 22:32N 22°11' E 114°20'3 0.3
2015-Mar-20 13:10N 22°13' E 114°18'610.0
2015-Mar-20 12:32N 22°18' E 114°13'0 0.0
2015-Mar-20 11:32N 22°18' E 114°13'0 0.1
2015-Mar-20 10:32N 22°18' E 114°13'0 0.0
2015-Mar-20 09:32N 22°18' E 114°13'0 0.0
2015-Mar-20 08:32N 22°18' E 114°13'0 0.0
2015-Mar-20 07:32N 22°18' E 114°13'0 0.1
2015-Mar-20 06:32N 22°18' E 114°13'0 0.1
2015-Mar-20 05:32N 22°18' E 114°13'0 0.0
2015-Mar-20 04:32N 22°18' E 114°13'0 0.0
2015-Mar-20 03:32N 22°18' E 114°13'0 0.1
2015-Mar-20 02:26N 22°18' E 114°13'0 0.0
2015-Mar-20 01:32N 22°18' E 114°13'0 0.0
2015-Mar-20 00:32N 22°18' E 114°13'2 2.3
2015-Mar-19 23:32N 22°17' E 114°15'5 0.5
2015-Mar-19 13:13N 22°12' E 114°18'711.2
2015-Mar-19 12:33N 22°18' E 114°13'0 0.1
2015-Mar-19 11:33N 22°18' E 114°13'0 0.1
2015-Mar-19 10:33N 22°18' E 114°13'0 0.1
2015-Mar-19 09:33N 22°18' E 114°13'0 0.0
2015-Mar-19 08:33N 22°18' E 114°13'0 0.0
2015-Mar-19 07:33N 22°18' E 114°13'0 0.1
2015-Mar-19 06:33N 22°18' E 114°13'0 0.0
2015-Mar-19 05:33N 22°18' E 114°13'0 0.0
2015-Mar-19 04:33N 22°18' E 114°13'0 0.0
2015-Mar-19 03:33N 22°18' E 114°13'0 0.1
2015-Mar-19 02:30N 22°18' E 114°13'0 0.1
2015-Mar-19 01:33N 22°18' E 114°13'0 0.0
2015-Mar-19 00:33N 22°18' E 114°13'2 2.0
2015-Mar-18 23:33N 22°17' E 114°15'7 7.1
2015-Mar-18 22:32N 22°11' E 114°20'2 0.2
2015-Mar-18 13:31N 22°12' E 114°19'7 7.5
2015-Mar-18 12:31N 22°18' E 114°13'0 0.1
2015-Mar-18 11:31N 22°18' E 114°13'0 0.0
2015-Mar-18 10:31N 22°18' E 114°13'0 0.0
2015-Mar-18 09:31N 22°18' E 114°13'0 0.0
2015-Mar-18 08:31N 22°18' E 114°13'0 0.0
2015-Mar-18 07:31N 22°18' E 114°13'0 0.0
2015-Mar-18 06:31N 22°18' E 114°13'0 0.1
2015-Mar-18 05:28N 22°18' E 114°13'0 0.0
2015-Mar-18 04:32N 22°18' E 114°13'0 0.0
2015-Mar-18 03:25N 22°18' E 114°13'0 0.1
2015-Mar-18 02:31N 22°18' E 114°13'0 0.1
2015-Mar-18 01:32N 22°18' E 114°13'0 0.1
2015-Mar-18 00:31N 22°18' E 114°13'2 1.8
2015-Mar-17 23:33N 22°17' E 114°15'8 7.4
2015-Mar-17 22:31N 22°11' E 114°20'2 0.2
2015-Mar-17 13:20N 22°12' E 114°19'8 9.4
2015-Mar-17 12:31N 22°18' E 114°13'0 0.0
2015-Mar-17 11:31N 22°18' E 114°13'0 0.1
2015-Mar-17 10:31N 22°18' E 114°13'0 0.1
2015-Mar-17 09:31N 22°18' E 114°13'0 0.0
2015-Mar-17 08:31N 22°18' E 114°13'  
Track history (hours):
 
Tides and Currents Weather Stations Pressure Air Temp Water Temp Dewpoint Dewpoint Depression Visibility Wind Speed Wind Dir Waves Ship Positions

Pongnae

Operator: V Ships Leisure SAM

Last reported at 2015-Mar-27 07:33 UTC. Time now 2015-Mar-27 08:11 UTC.
Position N 22°18' E 114°13'.

Length 171 m; draft 6.6 m.

Type: Passenger vessel. MMSI: 353669000.

Date/timePositionNaut miles runAvg speedWind from/ knotsBaromVisibWave heightAir tempDewpointWater temp
2015-Mar-27 07:33N 22°18' E 114°13'0 0.0
2015-Mar-27 06:33N 22°18' E 114°13'0 0.1
2015-Mar-27 05:33N 22°18' E 114°13'0 0.0
2015-Mar-27 04:33N 22°18' E 114°13'0 0.0
2015-Mar-27 03:33N 22°18' E 114°13'0 0.0
2015-Mar-27 02:33N 22°18' E 114°13'0 0.0
2015-Mar-27 01:33N 22°18' E 114°13'0 0.0
2015-Mar-27 00:33N 22°18' E 114°13'2 2.4
2015-Mar-26 23:34N 22°17' E 114°16'7 6.5
2015-Mar-26 22:30N 22°11' E 114°20'1 0.2
2015-Mar-26 13:07N 22°12' E 114°19'711.8
2015-Mar-26 12:33N 22°17' E 114°14'1 1.1
2015-Mar-26 11:33N 22°18' E 114°13'0 0.0
2015-Mar-26 10:33N 22°18' E 114°13'0 0.0
2015-Mar-26 09:33N 22°18' E 114°13'0 0.0
2015-Mar-26 08:33N 22°18' E 114°13'0 0.0
2015-Mar-26 07:33N 22°18' E 114°13'0 0.1
2015-Mar-26 06:33N 22°18' E 114°13'0 0.0
2015-Mar-26 05:33N 22°18' E 114°13'0 0.0
2015-Mar-26 04:30N 22°18' E 114°13'0 0.1
2015-Mar-26 03:33N 22°18' E 114°13'0 0.1
2015-Mar-26 02:33N 22°18' E 114°13'0 0.0
2015-Mar-26 01:33N 22°18' E 114°13'0 0.0
2015-Mar-26 00:33N 22°18' E 114°13'3 2.6
2015-Mar-25 23:33N 22°16' E 114°16'7 6.5
2015-Mar-25 22:31N 22°11' E 114°19'1 0.1
2015-Mar-25 13:16N 22°12' E 114°19'810.9
2015-Mar-25 12:34N 22°18' E 114°13'0 0.3
2015-Mar-25 11:32N 22°18' E 114°13'0 0.1
2015-Mar-25 10:32N 22°18' E 114°13'0 0.0
2015-Mar-25 09:29N 22°18' E 114°13'0 0.1
2015-Mar-25 08:32N 22°18' E 114°13'0 0.1
2015-Mar-25 07:32N 22°18' E 114°13'0 0.1
2015-Mar-25 06:32N 22°18' E 114°13'0 0.0
2015-Mar-25 05:32N 22°18' E 114°13'0 0.1
2015-Mar-25 04:32N 22°18' E 114°13'0 0.1
2015-Mar-25 03:32N 22°18' E 114°13'0 0.0
2015-Mar-25 02:32N 22°18' E 114°13'0 0.0
2015-Mar-25 01:29N 22°18' E 114°13'0 0.0
2015-Mar-25 00:32N 22°18' E 114°13'2 1.6
2015-Mar-24 23:33N 22°17' E 114°15'9 8.4
2015-Mar-24 22:31N 22°09' E 114°18'3 0.3
2015-Mar-24 13:33N 22°12' E 114°19'8 7.2
2015-Mar-24 12:28N 22°18' E 114°13'0 0.0
2015-Mar-24 11:28N 22°18' E 114°13'0 0.0
2015-Mar-24 10:31N 22°18' E 114°13'0 0.1
2015-Mar-24 09:28N 22°18' E 114°13'0 0.0
2015-Mar-24 08:31N 22°18' E 114°13'0 0.0
2015-Mar-24 07:31N 22°18' E 114°13'0 0.0
2015-Mar-24 06:31N 22°18' E 114°13'0 0.1
2015-Mar-24 05:31N 22°18' E 114°13'0 0.0
2015-Mar-24 04:28N 22°18' E 114°13'0 0.0
2015-Mar-24 03:31N 22°18' E 114°13'0 0.0
2015-Mar-24 02:31N 22°18' E 114°13'0 0.0
2015-Mar-24 01:31N 22°18' E 114°13'0 0.0
2015-Mar-24 00:31N 22°18' E 114°13'2 2.3
2015-Mar-23 23:33N 22°17' E 114°15'10 7.3
2015-Mar-23 22:15N 22°08' E 114°19'4 0.6
2015-Mar-23 15:20N 22°04' E 114°17'8 4.0
2015-Mar-23 13:23N 22°12' E 114°19'8 9.2
2015-Mar-23 12:31N 22°18' E 114°13'0 0.1
2015-Mar-23 11:31N 22°18' E 114°13'0 0.0
2015-Mar-23 10:31N 22°18' E 114°13'0 0.0
2015-Mar-23 09:31N 22°18' E 114°13'0 0.1
2015-Mar-23 08:31N 22°18' E 114°13'0 0.0
2015-Mar-23 07:31N 22°18' E 114°13'0 0.0
2015-Mar-23 06:31N 22°18' E 114°13'0 0.0
2015-Mar-23 05:31N 22°18' E 114°13'0 0.1
2015-Mar-23 04:28N 22°18' E 114°13'0 0.0
2015-Mar-23 03:31N 22°18' E 114°13'0 0.0
2015-Mar-23 02:31N 22°18' E 114°13'0 0.0
2015-Mar-23 01:31N 22°18' E 114°13'0 0.0
2015-Mar-23 00:28N 22°18' E 114°13'1 1.3
2015-Mar-22 23:33N 22°17' E 114°14'8 7.6
2015-Mar-22 22:31N 22°10' E 114°18'7 0.8
2015-Mar-22 14:06N 22°04' E 114°15'811.9
2015-Mar-22 13:23N 22°12' E 114°19'8 9.2
2015-Mar-22 12:32N 22°18' E 114°13'0 0.1
2015-Mar-22 11:32N 22°18' E 114°13'0 0.0
2015-Mar-22 10:32N 22°18' E 114°13'0 0.0
2015-Mar-22 09:32N 22°18' E 114°13'0 0.1
2015-Mar-22 08:32N 22°18' E 114°13'0 0.0
2015-Mar-22 07:32N 22°18' E 114°13'0 0.0
2015-Mar-22 06:32N 22°18' E 114°13'0 0.0
2015-Mar-22 05:32N 22°18' E 114°13'0 0.0
2015-Mar-22 04:32N 22°18' E 114°13'0 0.0
2015-Mar-22 03:32N 22°18' E 114°13'0 0.1
2015-Mar-22 02:32N 22°18' E 114°13'0 0.0
2015-Mar-22 01:32N 22°18' E 114°13'0 0.0
2015-Mar-22 00:32N 22°18' E 114°13'1 1.2
2015-Mar-21 23:34N 22°17' E 114°14'8 7.5
2015-Mar-21 22:32N 22°11' E 114°19'1 0.1
2015-Mar-21 13:13N 22°12' E 114°19'711.5
2015-Mar-21 12:33N 22°18' E 114°13'0 0.2
2015-Mar-21 11:32N 22°18' E 114°13'0 0.0
2015-Mar-21 10:32N 22°18' E 114°13'0 0.0
2015-Mar-21 09:32N 22°18' E 114°13'0 0.1
2015-Mar-21 08:32N 22°18' E 114°13'0 0.0
2015-Mar-21 07:32N 22°18' E 114°13'0 0.0
2015-Mar-21 06:32N 22°18' E 114°13'0 0.0
2015-Mar-21 05:32N 22°18' E 114°13'0 0.0
2015-Mar-21 04:32N 22°18' E 114°13'0 0.0
2015-Mar-21 03:32N 22°18' E 114°13'0 0.1
2015-Mar-21 02:32N 22°18' E 114°13'0 0.0
2015-Mar-21 01:32N 22°18' E 114°13'0 0.1
2015-Mar-21 00:32N 22°18' E 114°13'2 1.8
2015-Mar-20 23:33N 22°17' E 114°15'7 7.2
2015-Mar-20 22:32N 22°11' E 114°20'3 0.3
2015-Mar-20 13:10N 22°13' E 114°18'610.0
2015-Mar-20 12:32N 22°18' E 114°13'0 0.0
2015-Mar-20 11:32N 22°18' E 114°13'0 0.1
2015-Mar-20 10:32N 22°18' E 114°13'0 0.0
2015-Mar-20 09:32N 22°18' E 114°13'0 0.0
2015-Mar-20 08:32N 22°18' E 114°13'0 0.0
2015-Mar-20 07:32N 22°18' E 114°13'0 0.1
2015-Mar-20 06:32N 22°18' E 114°13'0 0.1
2015-Mar-20 05:32N 22°18' E 114°13'0 0.0
2015-Mar-20 04:32N 22°18' E 114°13'0 0.0
2015-Mar-20 03:32N 22°18' E 114°13'0 0.1
2015-Mar-20 02:26N 22°18' E 114°13'0 0.0
2015-Mar-20 01:32N 22°18' E 114°13'0 0.0
2015-Mar-20 00:32N 22°18' E 114°13'2 2.3
2015-Mar-19 23:32N 22°17' E 114°15'5 0.5
2015-Mar-19 13:13N 22°12' E 114°18'711.2
2015-Mar-19 12:33N 22°18' E 114°13'0 0.1
2015-Mar-19 11:33N 22°18' E 114°13'0 0.1
2015-Mar-19 10:33N 22°18' E 114°13'0 0.1
2015-Mar-19 09:33N 22°18' E 114°13'0 0.0
2015-Mar-19 08:33N 22°18' E 114°13'0 0.0
2015-Mar-19 07:33N 22°18' E 114°13'0 0.1
2015-Mar-19 06:33N 22°18' E 114°13'0 0.0
2015-Mar-19 05:33N 22°18' E 114°13'0 0.0
2015-Mar-19 04:33N 22°18' E 114°13'0 0.0
2015-Mar-19 03:33N 22°18' E 114°13'0 0.1
2015-Mar-19 02:30N 22°18' E 114°13'0 0.1
2015-Mar-19 01:33N 22°18' E 114°13'0 0.0
2015-Mar-19 00:33N 22°18' E 114°13'2 2.0
2015-Mar-18 23:33N 22°17' E 114°15'7 7.1
2015-Mar-18 22:32N 22°11' E 114°20'2 0.2
2015-Mar-18 13:31N 22°12' E 114°19'7 7.5
2015-Mar-18 12:31N 22°18' E 114°13'0 0.1
2015-Mar-18 11:31N 22°18' E 114°13'0 0.0
2015-Mar-18 10:31N 22°18' E 114°13'0 0.0
2015-Mar-18 09:31N 22°18' E 114°13'0 0.0
2015-Mar-18 08:31N 22°18' E 114°13'0 0.0
2015-Mar-18 07:31N 22°18' E 114°13'0 0.0
2015-Mar-18 06:31N 22°18' E 114°13'0 0.1
2015-Mar-18 05:28N 22°18' E 114°13'0 0.0
2015-Mar-18 04:32N 22°18' E 114°13'0 0.0
2015-Mar-18 03:25N 22°18' E 114°13'0 0.1
2015-Mar-18 02:31N 22°18' E 114°13'0 0.1
2015-Mar-18 01:32N 22°18' E 114°13'0 0.1
2015-Mar-18 00:31N 22°18' E 114°13'2 1.8
2015-Mar-17 23:33N 22°17' E 114°15'8 7.4
2015-Mar-17 22:31N 22°11' E 114°20'2 0.2
2015-Mar-17 13:20N 22°12' E 114°19'8 9.4
2015-Mar-17 12:31N 22°18' E 114°13'0 0.0
2015-Mar-17 11:31N 22°18' E 114°13'0 0.1
2015-Mar-17 10:31N 22°18' E 114°13'0 0.1
2015-Mar-17 09:31N 22°18' E 114°13'0 0.0
2015-Mar-17 08:31N 22°18' E 114°13'  

Dump ship's entire track history